Terminal Aerodrome Forecast
Issued by NWS

Home | Current Version | Previous Version | Text Only | Print | Product List | Glossary On
Versions: 1 2 3 4 5 6 7 8 9 10 11 12 13 14 15 16 17 18 19 20 21 22 23 24 25 26 27 28 29 30 31 32 33 34 35 36 37 38
000
FTUS43 KGRB 231636 AAA
TAFRHI
TAF AMD
KRHI 231636Z 2317/2412 VRB03KT P6SM VCSH FEW007 OVC050
      TEMPO 2319/2323 3SM -SHRA BR BKN012
     FM232300 03006KT 6SM -SHRA BKN015
     FM240400 04005KT 6SM BR BKN012=

USA.gov is the U.S. government's official web portal to all federal, state and local government web resources and services.